Welcome to Caribbean Wings!

Know this module!

Admissions Login


 METAR AND TAF INFORMATION
METAR FOR CYYT
ADDS - METARS form results

(2313 UTC 01 June 2020)
Data provider http://aviationweather.gov/metar/data/
 
METAR text: CYYT 012311Z 19021G28KT 5/8SM R29/P6000FT/D R16/P6000FT/U BR VV003 12/12 A3005 RMK FG8 SLP178
Conditions at: CYYT (ST JOHNS ARP , NL, CA) observed 2311 UTC 01 June 2020
Temperature: 12.0°C (54°F)
Dewpoint: 12.0°C (54°F) [RH = 100%]
Pressure (altimeter): 30.05 inches Hg (1017.7 mb)
[Sea-level pressure: 1017.8 mb]
Winds: from the S (190 degrees) at 24 MPH (21 knots; 10.8 m/s)
gusting to 32 MPH (28 knots; 14.4 m/s)
Visibility: 0.63 miles (1.01 km)
Ceiling: indefinite ceiling with vertical visibility of 300 feet AGL
Clouds: obscured sky
Weather: BR  (mist)

METAR text: CYYT 012300Z 19019G28KT 1SM R29/P6000FT/U R16/P6000FT/U BR OVC002 13/12 A3004 RMK FG6ST2 SLP177
Conditions at: CYYT (ST JOHNS ARP , NL, CA) observed 2300 UTC 01 June 2020
Temperature: 13.0°C (55°F)
Dewpoint: 12.0°C (54°F) [RH = 94%]
Pressure (altimeter): 30.04 inches Hg (1017.4 mb)
[Sea-level pressure: 1017.7 mb]
Winds: from the S (190 degrees) at 22 MPH (19 knots; 9.8 m/s)
gusting to 32 MPH (28 knots; 14.4 m/s)
Visibility: 1.00 miles (1.61 km)
Ceiling: 200 feet AGL
Clouds: overcast cloud deck at 200 feet AGL
Weather: BR  (mist)

METAR text: CYYT 012247Z 19020G28KT 1 1/2SM BR OVC002 13/12 A3005 RMK FG4ST4 SLP178
Conditions at: CYYT (ST JOHNS ARP , NL, CA) observed 2247 UTC 01 June 2020
Temperature: 13.0°C (55°F)
Dewpoint: 12.0°C (54°F) [RH = 94%]
Pressure (altimeter): 30.05 inches Hg (1017.7 mb)
[Sea-level pressure: 1017.8 mb]
Winds: from the S (190 degrees) at 23 MPH (20 knots; 10.3 m/s)
gusting to 32 MPH (28 knots; 14.4 m/s)
Visibility: 1.50 miles (2.41 km)
Ceiling: 200 feet AGL
Clouds: overcast cloud deck at 200 feet AGL
Weather: BR  (mist)

METAR text: CYYT 012216Z 19019G30KT 2SM BR OVC003 14/13 A3005 RMK ST8 VIS HIER NW-N SLP178
Conditions at: CYYT (ST JOHNS ARP , NL, CA) observed 2216 UTC 01 June 2020
Temperature: 14.0°C (57°F)
Dewpoint: 13.0°C (55°F) [RH = 94%]
Pressure (altimeter): 30.05 inches Hg (1017.7 mb)
[Sea-level pressure: 1017.8 mb]
Winds: from the S (190 degrees) at 22 MPH (19 knots; 9.8 m/s)
gusting to 34 MPH (30 knots; 15.4 m/s)
Visibility: 2.00 miles (3.22 km)
Ceiling: 300 feet AGL
Clouds: overcast cloud deck at 300 feet AGL
Weather: BR  (mist)

Forecast for: AMD
Text: TAF AMD CYYT 012231Z 0122/0218 19018G28KT 1SM -RA -DZ BR BKN003 OVC010
Forecast period: 2200 UTC 01 June 2020 to 1800 UTC 02 June 2020
Forecast type: FROM: standard forecast or significant change
Winds: from the S (190 degrees) at 21 MPH (18 knots; 9.3 m/s)
gusting to 32 MPH (28 knots; 14.4 m/s)
Visibility: 1.00 miles (1.61 km)
Ceiling: 300 feet AGL
Clouds: broken clouds at 300 feet AGL
overcast cloud deck at 1000 feet AGL
Weather: -RA -DZ BR  (light rain, light drizzle, mist)
Text: TEMPO 0122/0218 6SM BR SCT003 OVC010 RMK NXT FCST BY 020000Z
Forecast period: 2200 UTC 01 June 2020 to 1800 UTC 02 June 2020
Forecast type: TEMPORARY: The following changes expected for less than half the time period
Visibility: 6 miles (10 km)
Ceiling: 1000 feet AGL
Clouds: scattered clouds at 300 feet AGL
overcast cloud deck at 1000 feet AGL
Weather: BR  (mist)

 AIRPORT MAP

 RUNWAY INFORMATION
Runway 02 Runway length 5028 ft Runway width 100 ft
Runway elevation 445 ft Runway displaced threshold 0 ft Runway heading 356
Runway 20 Runway length 5028 ft Runway width 100 ft
Runway elevation 440 ft Runway displaced threshold 0 ft Runway heading 176
Runway 11 Runway length 8502 ft Runway width 200 ft
Runway elevation 458 ft Runway displaced threshold 0 ft Runway heading 86
Runway 29 Runway length 8502 ft Runway width 200 ft
Runway elevation 437 ft Runway displaced threshold 0 ft Runway heading 266
Runway 16 Runway length 7005 ft Runway width 200 ft
Runway elevation 444 ft Runway displaced threshold 0 ft Runway heading 142
Runway 34 Runway length 7005 ft Runway width 200 ft
Runway elevation 431 ft Runway displaced threshold 0 ft Runway heading 322

 AIRPORT FREQUENCIES
Type ATIS Name ATIS Frequency 128 MHZ
Type CNTR Name GANDER CNT Frequency 133.15 MHZ
Type FBO Name Shell Frequency 123 MHZ
Type GND Name GND Frequency 121.9 MHZ
Type RCO Name HALIFAX RD Frequency 123.275 MHZ
Type TWR Name TWR Frequency 120.6 MHZ

 AIRPORT NEAR NAVIGATION AIDS
Type NDB Name Signal Hill Frequency 358 KHZ
Type TACAN Name St.John's Frequency 108600 KHZ
Type NDB Name Torbay Frequency 260 KHZ
Type VOR-DME Name Torbay Frequency 113500 KHZ
Type NDB Name Wabana Frequency 270 KHZ
Type NDB Name Outer Cove Frequency 246 KHZ